Granada, Colorado
Current Conditions -  °F | °C
As of 1:53 PM on Tuesday 27 Jan 2015 (Local Time) from KLAA Reporting Station
Clear Clear  
Wind Chill: 70°   Ceiling: Unl
Heat Index: 70°   Visibility: 10mi
Dew Point: 32°   Wind: 5mph
Humidity: 25%   Direction: 350°N
Pressure: 30.03"   Gusts: NA
Location:  38.06°N, 102.31°W
Report Text: KLAA 272053Z AUTO 35004KT 10SM CLR 21/00 A3003 RMK AO2 SLP150 T02110000 56035
Loading
Personal Weather Stations






























Interactive Weather Map New forecast layout! Learn more

10-Day Weather Forecast

Advertisements
Track Severe Weather on mobile